Westerville, Iowa
Current Conditions -  °F | °C
As of 1:53 PM on Monday 26 Jan 2015 (Local Time) from KLWD Reporting Station
Clear Clear  
Wind Chill: 53°   Ceiling: Unl
Heat Index: 53°   Visibility: 10mi
Dew Point: 37°   Wind: 20mph
Humidity: 55%   Direction: 310°NW
Pressure: 29.84"   Gusts: 29mph
Location:  40.8106°N, 93.9578°W
Report Text: KLWD 261953Z AUTO 31017G25KT 10SM CLR 12/03 A2984 RMK AO2 SLP112 T01170028
Loading
Personal Weather Stations






























Interactive Weather Map New forecast layout! Learn more

10-Day Weather Forecast

Advertisements
Track Severe Weather on mobile